Shubenacadie, Canada
Current Conditions -  °F | °C
As of 8:00 PM on Monday 22 Dec 2014 (Local Time) from CYHZ Reporting Station
Light Snow Light Snow  
Wind Chill: 27°   Ceiling: 1600
Heat Index: 27°   Visibility: 15mi
Dew Point: 25°   Wind: 3mph
Humidity: 93%   Direction: 40°NE
Pressure: 30.45"   Gusts: NA
Location:  45.08°N, 63.4°W
Report Text: CYHZ 230000Z 04003KT 15SM -SN FEW010 OVC016 M03/M04 A3045 RMK SF1SC7 SLP320
Loading
Personal Weather Stations






























Interactive Weather Map New forecast layout! Learn more

10-Day Weather Forecast

Advertisements
Track Severe Weather on mobile